Time;durP1;ratioP1;P1;durP2;ratioP2;P2;SDS_P1;SDS_P2;PMS_P1;PMS_P2;Temp;Humidity;BMP_temperature;BMP_pressure;BME280_temperature;BME280_humidity;BME280_pressure;Samples;Min_cycle;Max_cycle;Signal;HPM_P1;HPM_P2
2021/03/26 00:01:21;;;;;;;49.38;20.88;;;;;;;3.05;100.00;101950.56;5266602;28;20099;-76
2021/03/26 00:03:54;;;;;;;43.20;18.25;;;;;;;3.00;100.00;101942.03;5267166;28;20032;-77
2021/03/26 00:06:29;;;;;;;43.65;18.80;;;;;;;3.01;100.00;101941.06;5266748;28;20473;-77
2021/03/26 00:08:59;;;;;;;46.40;18.52;;;;;;;2.99;100.00;101942.97;5266729;28;20032;-77
2021/03/26 00:11:30;;;;;;;52.58;23.10;;;;;;;3.02;100.00;101943.66;5266319;28;20034;-75
2021/03/26 00:14:01;;;;;;;45.72;20.40;;;;;;;3.04;100.00;101944.41;5266656;28;20123;-76
2021/03/26 00:16:32;;;;;;;55.28;22.25;;;;;;;3.11;100.00;101939.59;5260084;28;20099;-76
2021/03/26 00:19:04;;;;;;;54.63;20.63;;;;;;;3.25;100.00;101939.63;5266637;28;20128;-76
2021/03/26 00:21:34;;;;;;;50.30;19.70;;;;;;;3.24;100.00;101937.91;5266664;28;20093;-77
2021/03/26 00:24:06;;;;;;;51.92;21.55;;;;;;;3.27;100.00;101936.91;5266544;28;20020;-76
2021/03/26 00:26:36;;;;;;;43.33;18.80;;;;;;;3.25;100.00;101939.63;5267237;28;20048;-76
2021/03/26 00:29:11;;;;;;;45.42;18.95;;;;;;;3.18;100.00;101935.63;5282189;28;20055;-76
2021/03/26 00:31:42;;;;;;;50.80;19.83;;;;;;;3.14;100.00;101935.91;5266028;28;20031;-76
2021/03/26 00:34:13;;;;;;;48.65;20.33;;;;;;;3.12;100.00;101933.38;5266307;28;20618;-76
2021/03/26 00:36:44;;;;;;;55.10;22.73;;;;;;;3.09;100.00;101934.38;5261583;28;20054;-78
2021/03/26 00:39:14;;;;;;;49.53;20.70;;;;;;;3.09;100.00;101929.09;5265988;28;20027;-76
2021/03/26 00:41:45;;;;;;;60.80;23.85;;;;;;;3.23;100.00;101930.06;5266070;28;20054;-76
2021/03/26 00:44:15;;;;;;;64.72;24.40;;;;;;;3.30;100.00;101920.78;5265563;28;20050;-75
2021/03/26 00:46:46;;;;;;;55.50;22.83;;;;;;;3.25;100.00;101921.06;5266238;28;20074;-76
2021/03/26 00:49:16;;;;;;;59.22;19.70;;;;;;;3.15;100.00;101925.22;5266062;28;20119;-76
2021/03/26 00:51:47;;;;;;;58.70;21.60;;;;;;;3.03;100.00;101924.16;5265929;28;20020;-76
2021/03/26 00:54:18;;;;;;;52.85;22.48;;;;;;;2.95;100.00;101917.59;5265989;28;20027;-76
2021/03/26 00:56:48;;;;;;;53.33;20.45;;;;;;;2.89;100.00;101920.59;5265743;28;20020;-76
2021/03/26 00:59:19;;;;;;;48.83;20.73;;;;;;;2.82;100.00;101915.69;5265914;28;20465;-76
2021/03/26 01:01:49;;;;;;;58.95;21.83;;;;;;;2.77;100.00;101907.16;5256014;28;20020;-76
2021/03/26 01:04:20;;;;;;;45.08;21.35;;;;;;;2.75;100.00;101910.81;5264616;28;20023;-76
2021/03/26 01:06:50;;;;;;;50.28;20.42;;;;;;;2.71;100.00;101902.22;5265971;28;20024;-75
2021/03/26 01:09:21;;;;;;;54.70;21.67;;;;;;;2.68;100.00;101905.03;5265235;28;20035;-76
2021/03/26 01:11:52;;;;;;;49.78;19.25;;;;;;;2.67;100.00;101899.81;5265977;28;20043;-75
2021/03/26 01:14:23;;;;;;;52.35;19.95;;;;;;;2.65;100.00;101891.09;5265551;28;20477;-77
2021/03/26 01:16:53;;;;;;;44.47;18.98;;;;;;;2.62;100.00;101894.78;5265642;28;20386;-75
2021/03/26 01:19:25;;;;;;;48.58;18.92;;;;;;;2.59;100.00;101897.59;5265753;28;20039;-77
2021/03/26 01:21:55;;;;;;;51.58;22.27;;;;;;;2.59;100.00;101882.56;5265644;28;20066;-76
2021/03/26 01:24:26;;;;;;;55.40;23.23;;;;;;;2.66;100.00;101887.50;5265657;28;20383;-77
2021/03/26 01:26:56;;;;;;;46.88;20.38;;;;;;;2.71;100.00;101883.66;5264537;28;20054;-76
2021/03/26 01:29:27;;;;;;;65.57;24.15;;;;;;;2.79;100.00;101886.69;5265703;28;20024;-77
2021/03/26 01:31:57;;;;;;;59.92;23.67;;;;;;;2.84;100.00;101878.47;5265098;28;20028;-76
2021/03/26 01:34:28;;;;;;;70.53;27.27;;;;;;;2.92;100.00;101878.03;5281447;28;20032;-76
2021/03/26 01:36:58;;;;;;;62.95;24.73;;;;;;;2.99;100.00;101874.06;5265327;28;20024;-76
2021/03/26 01:39:29;;;;;;;63.72;25.85;;;;;;;3.03;100.00;101863.19;5247794;28;20016;-77
2021/03/26 01:41:59;;;;;;;65.38;24.70;;;;;;;3.04;100.00;101864.88;5265140;28;20038;-76
2021/03/26 01:44:30;;;;;;;62.53;24.30;;;;;;;3.07;100.00;101861.19;5266138;28;20438;-76
2021/03/26 01:47:00;;;;;;;80.32;28.85;;;;;;;3.13;100.00;101859.97;5264978;28;20043;-76
2021/03/26 01:49:31;;;;;;;98.40;32.65;;;;;;;3.22;100.00;101849.66;5266356;28;20013;-76
2021/03/26 01:52:01;;;;;;;104.63;34.92;;;;;;;3.33;100.00;101849.84;5264947;28;20071;-77
2021/03/26 01:54:32;;;;;;;100.18;34.88;;;;;;;3.47;100.00;101846.34;5266142;28;20110;-76
2021/03/26 01:57:03;;;;;;;101.35;37.13;;;;;;;3.59;100.00;101845.56;5265213;28;20030;-76
2021/03/26 01:59:34;;;;;;;122.13;39.28;;;;;;;3.72;100.00;101847.44;5266374;28;20027;-76
2021/03/26 02:02:10;;;;;;;107.43;37.85;;;;;;;3.84;100.00;101842.19;5265091;28;20024;-76
2021/03/26 02:04:44;;;;;;;117.00;38.70;;;;;;;3.96;100.00;101835.22;5265910;28;20334;-76
2021/03/26 02:07:30;;;;;;;113.13;37.95;;;;;;;4.08;100.00;101838.91;5265134;28;20032;-77
2021/03/26 02:10:02;;;;;;;121.30;38.70;;;;;;;4.18;100.00;101833.84;5265465;28;20031;-77
2021/03/26 02:12:34;;;;;;;105.03;36.22;;;;;;;4.25;100.00;101838.63;5264879;28;20028;-76
2021/03/26 02:15:16;;;;;;;107.82;37.90;;;;;;;4.32;100.00;101828.47;5265435;28;20099;-77
2021/03/26 02:17:47;;;;;;;106.03;37.30;;;;;;;4.34;100.00;101826.56;5265112;28;20161;-76
2021/03/26 02:20:35;;;;;;;96.88;34.95;;;;;;;4.30;100.00;101822.41;5268606;28;20027;-76
2021/03/26 02:23:16;;;;;;;91.25;33.05;;;;;;;4.30;100.00;101827.72;5260077;28;20016;-76
2021/03/26 02:25:47;;;;;;;107.07;36.40;;;;;;;4.29;100.00;101816.22;5268640;28;20027;-76
2021/03/26 02:28:17;;;;;;;97.30;33.95;;;;;;;4.29;100.00;101828.66;5268773;28;20024;-76
2021/03/26 02:30:53;;;;;;;112.50;38.15;;;;;;;4.37;100.00;101823.72;5268134;28;20397;-76
2021/03/26 02:33:24;;;;;;;98.63;34.88;;;;;;;4.46;100.00;101822.22;5268841;28;20024;-77
2021/03/26 02:36:17;;;;;;;107.20;37.17;;;;;;;4.52;100.00;101824.47;5268566;28;20157;-77
2021/03/26 02:38:52;;;;;;;96.22;36.03;;;;;;;4.53;100.00;101823.53;5255836;28;20032;-77
2021/03/26 02:41:30;;;;;;;105.57;34.83;;;;;;;4.53;100.00;101818.22;5268820;28;20020;-76
2021/03/26 02:44:23;;;;;;;104.32;36.20;;;;;;;4.57;100.00;101817.06;5269289;28;20042;-76
2021/03/26 02:47:14;;;;;;;101.53;36.05;;;;;;;4.53;100.00;101812.91;5255861;28;20016;-76
2021/03/26 02:49:52;;;;;;;98.65;34.30;;;;;;;4.53;100.00;101815.56;5268841;28;20027;-76
2021/03/26 02:52:35;;;;;;;103.78;35.75;;;;;;;4.57;100.00;101806.44;5268116;28;20016;-76
2021/03/26 02:55:08;;;;;;;111.03;36.90;;;;;;;4.56;100.00;101818.00;5268550;28;20036;-76
2021/03/26 02:57:44;;;;;;;108.43;35.55;;;;;;;4.58;100.00;101811.63;5267938;28;20024;-76
2021/03/26 03:00:23;;;;;;;102.13;34.70;;;;;;;4.64;100.00;101805.88;5268423;28;20036;-76
2021/03/26 03:02:56;;;;;;;108.60;35.05;;;;;;;4.61;100.00;101810.56;5268647;28;20074;-76
2021/03/26 03:05:38;;;;;;;101.05;34.38;;;;;;;4.64;100.00;101807.69;5269639;28;20024;-76
2021/03/26 03:08:17;;;;;;;108.85;34.92;;;;;;;4.60;100.00;101804.38;5268546;28;20055;-76
2021/03/26 03:10:56;;;;;;;100.80;35.33;;;;;;;4.60;100.00;101804.38;5268860;28;20106;-77
2021/03/26 03:13:30;;;;;;;;;;;;;;;4.61;100.00;101803.44;5268384;28;20032;-76
2021/03/26 03:16:10;;;;;;;97.78;34.70;;;;;;;4.62;100.00;101804.31;5264963;28;19908;-77
2021/03/26 03:18:50;;;;;;;101.18;33.95;;;;;;;4.61;100.00;101805.25;5262994;28;20032;-76
2021/03/26 03:21:25;;;;;;;82.82;32.80;;;;;;;4.63;100.00;101801.53;5268082;28;20036;-76
2021/03/26 03:24:05;;;;;;;94.53;33.67;;;;;;;4.66;100.00;101797.81;5284641;28;20028;-77
2021/03/26 03:26:55;;;;;;;85.03;32.88;;;;;;;4.60;100.00;101800.88;5268696;28;20135;-76
2021/03/26 03:29:32;;;;;;;79.45;31.02;;;;;;;4.57;100.00;101790.47;5268555;28;20105;-76
2021/03/26 03:32:21;;;;;;;98.82;32.92;;;;;;;4.65;100.00;101801.41;5266014;28;20038;-77
2021/03/26 03:35:02;;;;;;;89.50;31.65;;;;;;;4.62;100.00;101796.34;5261696;28;20109;-77
2021/03/26 03:37:37;;;;;;;88.13;31.20;;;;;;;4.59;100.00;101786.75;5261225;28;20033;-77
2021/03/26 03:40:16;;;;;;;84.63;31.15;;;;;;;4.58;100.00;101793.03;5267407;28;20032;-76
2021/03/26 03:42:58;;;;;;;94.43;31.45;;;;;;;4.57;100.00;101790.47;5267135;28;20035;-76
2021/03/26 03:45:49;;;;;;;87.65;30.30;;;;;;;4.54;100.00;101782.72;5267182;28;20508;-76
2021/03/26 03:48:30;;;;;;;82.82;29.77;;;;;;;4.55;100.00;101779.94;5266978;28;20028;-77
2021/03/26 03:51:14;;;;;;;88.20;31.23;;;;;;;4.58;100.00;101786.88;5267147;28;20102;-77
2021/03/26 03:54:00;;;;;;;84.93;28.48;;;;;;;4.56;100.00;101784.28;5266898;28;20047;-76
2021/03/26 03:56:40;;;;;;;80.28;28.83;;;;;;;4.56;100.00;101778.97;5266812;28;20095;-76
2021/03/26 03:59:18;;;;;;;87.55;30.98;;;;;;;4.58;100.00;101782.41;5267256;28;20051;-76
2021/03/26 04:01:56;;;;;;;88.43;30.05;;;;;;;4.60;100.00;101783.13;5261801;28;20020;-77
2021/03/26 04:04:42;;;;;;;78.55;28.63;;;;;;;4.59;100.00;101781.44;5266677;28;20051;-77
2021/03/26 04:07:18;;;;;;;79.32;29.52;;;;;;;4.55;100.00;101779.09;5267471;28;20055;-76
2021/03/26 04:09:53;;;;;;;78.55;29.27;;;;;;;4.57;100.00;101772.72;5265552;28;20024;-76
2021/03/26 04:12:30;;;;;;;79.00;29.95;;;;;;;4.59;100.00;101776.13;5266340;28;20092;-76
2021/03/26 04:15:17;;;;;;;73.43;28.25;;;;;;;4.59;100.00;101769.94;5266244;28;20028;-76
2021/03/26 04:17:56;;;;;;;75.93;29.30;;;;;;;4.56;100.00;101771.00;5264892;28;20038;-76
2021/03/26 04:20:37;;;;;;;83.20;30.92;;;;;;;4.50;100.00;101766.09;5265357;28;20052;-76
2021/03/26 04:23:16;;;;;;;76.60;28.48;;;;;;;4.49;100.00;101768.88;5266083;28;20046;-77
2021/03/26 04:26:04;;;;;;;74.20;28.90;;;;;;;4.53;100.00;101760.59;5266617;28;20478;-76
2021/03/26 04:28:38;;;;;;;73.07;28.88;;;;;;;4.50;100.00;101766.09;5260302;28;20036;-76
2021/03/26 04:31:15;;;;;;;79.25;27.02;;;;;;;4.48;100.00;101759.22;5266292;28;20047;-77
2021/03/26 04:33:46;;;;;;;69.78;27.98;;;;;;;4.48;100.00;101765.38;5261168;28;20034;-76
2021/03/26 04:36:24;;;;;;;75.30;27.45;;;;;;;4.43;100.00;101756.03;5266705;28;20027;-77
2021/03/26 04:39:03;;;;;;;77.88;27.10;;;;;;;4.39;100.00;101753.56;5258483;28;20458;-77
2021/03/26 04:41:42;;;;;;;77.65;27.05;;;;;;;4.41;100.00;101759.59;5265675;28;20044;-77
2021/03/26 04:44:22;;;;;;;76.53;27.95;;;;;;;4.36;100.00;101759.06;5265775;28;20023;-77
2021/03/26 04:47:01;;;;;;;86.40;28.98;;;;;;;4.35;100.00;101757.38;5266345;28;20437;-76
2021/03/26 04:49:38;;;;;;;83.85;27.67;;;;;;;4.31;100.00;101750.56;5266250;28;20081;-76
2021/03/26 04:52:16;;;;;;;71.93;28.20;;;;;;;4.27;100.00;101745.59;5265528;28;20016;-76
2021/03/26 04:54:51;;;;;;;81.97;30.15;;;;;;;4.26;100.00;101749.16;5281842;28;20028;-76
2021/03/26 04:57:27;;;;;;;78.90;28.33;;;;;;;4.24;100.00;101743.97;5266048;28;20024;-76
2021/03/26 05:00:08;;;;;;;87.05;30.88;;;;;;;4.26;100.00;101750.03;5266493;28;20027;-77
2021/03/26 05:02:45;;;;;;;80.55;26.92;;;;;;;4.26;100.00;101746.50;5259711;28;20031;-76
2021/03/26 05:05:18;;;;;;;76.63;27.58;;;;;;;4.32;100.00;101743.47;5255734;28;20027;-77
2021/03/26 05:07:54;;;;;;;90.78;28.67;;;;;;;4.31;100.00;101734.63;5265690;28;20024;-76
2021/03/26 05:10:27;;;;;;;86.75;30.25;;;;;;;4.32;100.00;101741.66;5258007;28;20062;-76
2021/03/26 05:13:02;;;;;;;76.60;28.30;;;;;;;4.33;100.00;101738.03;5265439;28;20107;-76
2021/03/26 05:15:41;;;;;;;79.07;27.30;;;;;;;4.28;100.00;101740.16;5264826;28;20028;-78
2021/03/26 05:18:21;;;;;;;77.53;28.85;;;;;;;4.31;100.00;101739.94;5257386;28;20023;-76
2021/03/26 05:21:00;;;;;;;82.03;29.77;;;;;;;4.34;100.00;101729.09;5265473;28;20054;-76
2021/03/26 05:23:37;;;;;;;84.68;28.67;;;;;;;4.35;100.00;101730.81;5264288;28;20023;-76
2021/03/26 05:26:08;;;;;;;78.90;27.35;;;;;;;4.36;100.00;101724.53;5265908;28;20024;-76
2021/03/26 05:28:42;;;;;;;76.32;28.30;;;;;;;4.35;100.00;101722.84;5265769;28;20031;-75
2021/03/26 05:31:31;;;;;;;72.65;27.63;;;;;;;4.35;100.00;101722.00;5265587;28;20023;-75
2021/03/26 05:34:12;;;;;;;101.75;28.83;;;;;;;4.35;100.00;101729.97;5265799;28;20562;-77
2021/03/26 05:36:55;;;;;;;74.85;28.13;;;;;;;4.36;100.00;101719.22;5265717;28;20070;-75
2021/03/26 05:39:32;;;;;;;74.50;27.83;;;;;;;4.35;100.00;101725.50;5254693;28;20059;-75
2021/03/26 05:42:34;;;;;;;80.55;30.05;;;;;;;4.43;100.00;101718.81;5265488;28;20539;-75
2021/03/26 05:45:40;;;;;;;72.05;27.02;;;;;;;4.52;100.00;101711.06;5265261;28;20066;-76
2021/03/26 05:48:41;;;;;;;87.78;29.77;;;;;;;4.56;100.00;101717.00;5258493;28;20519;-76
2021/03/26 05:51:32;;;;;;;74.05;26.60;;;;;;;4.72;100.00;101711.47;5266824;28;20050;-77
2021/03/26 05:54:18;;;;;;;68.82;26.70;;;;;;;4.98;100.00;101707.84;5269006;28;20039;-76
2021/03/26 05:57:08;;;;;;;73.47;27.48;;;;;;;5.25;100.00;101714.78;5270822;28;20052;-76
2021/03/26 05:59:58;;;;;;;65.68;25.15;;;;;;;5.41;100.00;101710.91;5268337;28;20059;-76
2021/03/26 06:02:43;;;;;;;71.25;27.20;;;;;;;5.47;100.00;101714.91;5268503;28;20138;-76
2021/03/26 06:05:18;;;;;;;71.13;26.08;;;;;;;5.37;100.00;101716.56;5283542;28;20102;-77
2021/03/26 06:07:50;;;;;;;67.70;24.45;;;;;;;5.32;100.00;101716.03;5268049;28;20385;-77
2021/03/26 06:10:30;;;;;;;68.55;27.77;;;;;;;5.37;100.00;101711.22;5267481;28;20030;-76
2021/03/26 06:13:23;;;;;;;66.15;25.17;;;;;;;5.43;100.00;101716.13;5269145;28;20059;-77
2021/03/26 06:16:24;;;;;;;62.85;23.92;;;;;;;5.51;100.00;101715.56;5261475;28;20029;-77
2021/03/26 06:19:16;;;;;;;64.65;26.05;;;;;;;5.58;100.00;101707.03;5266227;28;20032;-77
2021/03/26 06:21:47;;;;;;;54.45;22.77;;;;;;;5.64;100.00;101703.06;5268457;28;20020;-77
2021/03/26 06:24:50;;;;;;;64.50;23.92;;;;;;;5.72;100.00;101705.97;5269098;28;20035;-77
2021/03/26 06:27:39;;;;;;;62.67;24.45;;;;;;;5.79;100.00;101709.06;5261242;28;20020;-77
2021/03/26 06:30:22;;;;;;;61.92;23.65;;;;;;;5.87;100.00;101709.31;5256549;28;20034;-76
2021/03/26 06:33:21;;;;;;;57.47;23.65;;;;;;;5.99;100.00;101704.94;5266340;28;20024;-77
2021/03/26 06:36:11;;;;;;;59.47;23.45;;;;;;;6.12;100.00;101714.53;5269060;28;20428;-77
2021/03/26 06:38:57;;;;;;;57.63;23.45;;;;;;;6.21;100.00;101703.16;5263156;28;20040;-76
2021/03/26 06:41:40;;;;;;;63.60;26.17;;;;;;;6.33;100.00;101705.88;5262316;28;20030;-77
2021/03/26 06:44:11;;;;;;;50.95;22.48;;;;;;;6.45;100.00;101704.94;5267181;28;20027;-77
2021/03/26 06:47:08;;;;;;;57.67;22.63;;;;;;;6.60;100.00;101708.22;5268616;28;20085;-77
2021/03/26 06:49:51;;;;;;;54.63;22.33;;;;;;;6.71;100.00;101703.75;5263183;28;20028;-77
2021/03/26 06:52:26;;;;;;;53.05;22.10;;;;;;;6.71;100.00;101700.22;5268366;28;20077;-77
2021/03/26 06:55:24;;;;;;;61.28;24.15;;;;;;;6.80;100.00;101704.84;5268347;28;20111;-77
2021/03/26 06:58:27;;;;;;;56.50;22.40;;;;;;;6.98;100.00;101700.72;5266083;28;20044;-77
2021/03/26 07:01:14;;;;;;;49.45;20.80;;;;;;;7.03;100.00;101699.50;5267974;28;20024;-77
2021/03/26 07:04:05;;;;;;;53.63;21.50;;;;;;;7.18;100.00;101696.47;5267160;28;20063;-78
2021/03/26 07:07:04;;;;;;;46.78;20.27;;;;;;;7.28;100.00;101701.91;5257761;28;20020;-78
2021/03/26 07:10:01;;;;;;;55.50;22.33;;;;;;;7.59;100.00;101707.41;5267530;28;20031;-75
2021/03/26 07:12:54;;;;;;;49.17;20.85;;;;;;;7.82;100.00;101717.03;5267685;28;20055;-77
2021/03/26 07:15:51;;;;;;;45.50;19.52;;;;;;;8.08;100.00;101706.84;5267963;28;20060;-77
2021/03/26 07:18:43;;;;;;;42.80;18.48;;;;;;;8.28;100.00;101710.50;5268597;28;20077;-77
2021/03/26 07:21:32;;;;;;;39.60;16.73;;;;;;;8.42;100.00;101709.38;5267639;28;20036;-76
2021/03/26 07:24:21;;;;;;;43.60;17.58;;;;;;;8.48;100.00;101708.84;5267530;28;20083;-76
2021/03/26 07:27:04;;;;;;;43.17;18.20;;;;;;;8.50;100.00;101713.09;5268582;28;20032;-78
2021/03/26 07:29:46;;;;;;;35.90;16.65;;;;;;;8.57;100.00;101719.59;5256630;28;20112;-75
2021/03/26 07:32:35;;;;;;;41.75;16.90;;;;;;;8.37;100.00;101716.94;5251974;28;20072;-76
2021/03/26 07:35:16;;;;;;;37.22;16.60;;;;;;;8.52;100.00;101718.28;5261305;28;20032;-78
2021/03/26 07:38:12;;;;;;;37.47;16.58;;;;;;;8.49;100.00;101718.56;5257021;28;20028;-75
2021/03/26 07:41:03;;;;;;;45.92;16.73;;;;;;;8.56;100.00;101723.25;5252312;28;20028;-76
2021/03/26 07:43:43;;;;;;;38.75;16.15;;;;;;;8.57;100.00;101722.25;5267008;28;20093;-76
2021/03/26 07:46:30;;;;;;;36.60;15.13;;;;;;;8.53;100.00;101723.53;5255623;28;20489;-76
2021/03/26 07:49:48;;;;;;;37.28;16.38;;;;;;;8.59;100.00;101718.63;5266216;28;20548;-77
2021/03/26 07:52:21;;;;;;;39.55;16.27;;;;;;;8.56;100.00;101723.25;5265654;28;20032;-76
2021/03/26 07:55:20;;;;;;;35.20;16.52;;;;;;;8.41;100.00;101727.25;5266134;28;20050;-76
2021/03/26 07:58:02;;;;;;;35.03;16.27;;;;;;;8.48;100.00;101724.88;5259366;28;20067;-76
2021/03/26 08:00:42;;;;;;;43.60;17.13;;;;;;;8.42;100.00;101731.59;5263091;28;20035;-75
2021/03/26 08:03:50;;;;;;;34.38;15.13;;;;;;;8.47;100.00;101729.38;5265569;28;20127;-77
2021/03/26 08:06:51;;;;;;;38.38;16.25;;;;;;;8.46;100.00;101729.53;5254090;28;20041;-76
2021/03/26 08:09:33;;;;;;;34.17;13.68;;;;;;;8.45;100.00;101725.16;5277134;28;20506;-75
2021/03/26 08:12:29;;;;;;;36.60;14.55;;;;;;;8.62;100.00;101726.38;5264893;28;20035;-75
2021/03/26 08:15:13;;;;;;;33.17;13.68;;;;;;;8.59;100.00;101729.34;5262141;28;20562;-75
2021/03/26 08:17:59;;;;;;;34.85;13.82;;;;;;;8.61;100.00;101728.22;5265976;28;20036;-75
2021/03/26 08:20:33;;;;;;;35.10;14.73;;;;;;;8.67;100.00;101733.03;5257003;28;20482;-75
2021/03/26 08:23:31;;;;;;;34.83;15.40;;;;;;;8.75;100.00;101729.69;5262601;28;20073;-76
2021/03/26 08:26:16;;;;;;;40.85;14.38;;;;;;;8.72;100.00;101733.47;5248373;28;20051;-75
2021/03/26 08:29:02;;;;;;;36.03;14.10;;;;;;;8.82;100.00;101729.00;5264796;28;20367;-75
2021/03/26 08:31:48;;;;;;;26.25;12.95;;;;;;;8.87;100.00;101722.41;5264328;28;20016;-76
2021/03/26 08:34:32;;;;;;;33.42;13.90;;;;;;;8.99;100.00;101732.91;5265565;28;20050;-77
2021/03/26 08:37:04;;;;;;;40.97;13.93;;;;;;;9.13;100.00;101722.81;5264358;28;20032;-75
2021/03/26 08:39:39;;;;;;;36.08;13.70;;;;;;;9.07;100.00;101732.22;5263885;28;20512;-77
2021/03/26 08:42:22;;;;;;;36.53;12.98;;;;;;;9.12;100.00;101724.63;5265228;28;20084;-77
2021/03/26 08:44:58;;;;;;;29.80;12.48;;;;;;;9.25;100.00;101727.09;5266043;28;20040;-76
2021/03/26 08:47:37;;;;;;;;;;;;;;;9.30;100.00;101728.38;5265247;28;20024;-75
2021/03/26 08:50:32;;;;;;;33.83;12.43;;;;;;;9.32;100.00;101722.88;5264776;28;19998;-77
2021/03/26 08:53:17;;;;;;;31.38;11.73;;;;;;;9.46;100.00;101724.31;5265013;28;20059;-77
2021/03/26 08:56:04;;;;;;;24.48;11.43;;;;;;;9.57;100.00;101713.47;5263838;28;20035;-77
2021/03/26 08:59:00;;;;;;;24.58;11.48;;;;;;;9.63;100.00;101720.97;5265201;28;20028;-77
2021/03/26 09:02:01;;;;;;;24.75;10.57;;;;;;;9.90;100.00;101719.44;5264683;28;20020;-77
2021/03/26 09:04:48;;;;;;;25.30;10.95;;;;;;;10.07;100.00;101713.38;5254933;28;20043;-77
2021/03/26 09:07:19;;;;;;;27.73;11.07;;;;;;;10.20;100.00;101710.41;5265178;28;20078;-76
2021/03/26 09:10:02;;;;;;;28.13;11.43;;;;;;;10.36;100.00;101706.19;5264867;28;20047;-75
2021/03/26 09:12:51;;;;;;;25.75;10.55;;;;;;;10.52;100.00;101716.31;5264017;28;20059;-77
2021/03/26 09:15:38;;;;;;;22.15;10.35;;;;;;;10.69;100.00;101709.34;5259112;28;20036;-77
2021/03/26 09:18:19;;;;;;;24.67;10.75;;;;;;;10.81;100.00;101705.50;5262101;28;20456;-77
2021/03/26 09:20:50;;;;;;;23.73;11.05;;;;;;;11.08;100.00;101707.34;5262971;28;20034;-77
2021/03/26 09:23:40;;;;;;;28.25;11.13;;;;;;;11.30;100.00;101702.59;5262275;28;20028;-76
2021/03/26 09:26:18;;;;;;;20.25;9.10;;;;;;;11.59;100.00;101711.28;5266514;28;20028;-76
2021/03/26 09:28:56;;;;;;;21.83;9.00;;;;;;;11.66;100.00;101706.16;5270010;28;20053;-77
2021/03/26 09:31:38;;;;;;;21.02;9.38;;;;;;;11.95;100.00;101705.13;5266912;28;20538;-76
2021/03/26 09:34:20;;;;;;;20.92;8.18;;;;;;;11.98;100.00;101699.44;5267990;28;20443;-77
2021/03/26 09:37:05;;;;;;;23.30;8.25;;;;;;;12.18;100.00;101698.25;5269494;28;20547;-82
2021/03/26 09:39:37;;;;;;;20.73;8.48;;;;;;;12.21;100.00;101691.75;5266943;28;20111;-76
2021/03/26 09:42:24;;;;;;;13.85;6.72;;;;;;;12.39;100.00;101692.53;5267100;28;20485;-76
2021/03/26 09:45:02;;;;;;;14.70;6.55;;;;;;;12.59;100.00;101685.09;5268505;28;20085;-76
2021/03/26 09:48:14;;;;;;;12.48;6.18;;;;;;;12.77;100.00;101688.56;5268132;28;20024;-74
2021/03/26 09:50:58;;;;;;;15.65;6.32;;;;;;;12.99;100.00;101689.84;5268123;28;20096;-75
2021/03/26 09:53:36;;;;;;;11.85;5.70;;;;;;;13.27;100.00;101681.59;5268529;28;20031;-77
2021/03/26 09:56:28;;;;;;;12.43;5.55;;;;;;;13.17;100.00;101681.69;5268902;28;20043;-78
2021/03/26 09:59:12;;;;;;;15.25;5.40;;;;;;;13.27;100.00;101679.72;5268487;28;20211;-76
2021/03/26 10:01:51;;;;;;;8.15;4.30;;;;;;;13.20;100.00;101667.88;5268123;28;20469;-76
2021/03/26 10:04:31;;;;;;;12.55;4.53;;;;;;;13.36;100.00;101673.34;5269217;28;20050;-77
2021/03/26 10:07:17;;;;;;;10.75;3.67;;;;;;;13.44;100.00;101670.66;5268091;28;20554;-76
2021/03/26 10:09:50;;;;;;;12.07;3.95;;;;;;;13.04;100.00;101667.81;5267214;28;20486;-76
2021/03/26 10:12:24;;;;;;;11.48;4.15;;;;;;;13.01;100.00;101666.31;5267690;28;20039;-76
2021/03/26 10:14:55;;;;;;;7.65;3.40;;;;;;;12.94;100.00;101668.78;5266906;28;20032;-78
2021/03/26 10:17:46;;;;;;;8.35;3.00;;;;;;;12.60;100.00;101658.03;5266532;28;20366;-76
2021/03/26 10:20:22;;;;;;;8.93;3.03;;;;;;;12.77;100.00;101658.94;5259899;28;20016;-76
2021/03/26 10:23:01;;;;;;;8.40;3.22;;;;;;;12.44;100.00;101657.91;5267516;28;20020;-77
2021/03/26 10:25:39;;;;;;;13.38;3.50;;;;;;;12.36;100.00;101642.59;5266753;28;20031;-77
2021/03/26 10:28:18;;;;;;;10.30;3.17;;;;;;;12.40;100.00;101632.34;5267777;28;20024;-77
2021/03/26 10:31:09;;;;;;;7.38;3.50;;;;;;;12.39;100.00;101638.72;5267820;28;20031;-77
2021/03/26 10:33:50;;;;;;;7.43;2.75;;;;;;;12.61;100.00;101637.34;5267479;28;20020;-77
2021/03/26 10:36:38;;;;;;;11.88;3.55;;;;;;;12.92;100.00;101633.09;5259909;28;20028;-77
2021/03/26 10:39:20;;;;;;;8.85;2.92;;;;;;;13.13;100.00;101632.66;5266777;28;20477;-77
2021/03/26 10:41:58;;;;;;;10.27;3.55;;;;;;;13.15;91.94;101635.19;5262516;28;20020;-77
2021/03/26 10:44:41;;;;;;;9.75;3.10;;;;;;;12.75;90.66;101630.47;5267495;28;20070;-78
2021/03/26 10:47:20;;;;;;;9.77;3.50;;;;;;;12.74;91.79;101623.41;5269111;28;20493;-80
2021/03/26 10:49:55;;;;;;;9.05;2.95;;;;;;;12.78;85.45;101617.56;5269089;28;20034;-78
2021/03/26 10:52:31;;;;;;;9.30;3.25;;;;;;;12.62;90.33;101625.56;5269983;28;20032;-79
2021/03/26 10:55:11;;;;;;;13.40;3.67;;;;;;;12.55;96.10;101625.38;5270308;28;20060;-78
2021/03/26 10:57:54;;;;;;;13.82;3.97;;;;;;;12.17;91.46;101626.63;5270268;28;20070;-78
2021/03/26 11:00:31;;;;;;;9.00;3.22;;;;;;;12.28;95.94;101626.38;5270417;28;20431;-78
2021/03/26 11:03:18;;;;;;;6.72;2.97;;;;;;;12.18;94.41;101620.25;5271021;28;20024;-80
2021/03/26 11:05:58;;;;;;;6.22;2.70;;;;;;;12.19;90.63;101627.31;5270382;28;20046;-80
2021/03/26 11:08:41;;;;;;;7.18;2.83;;;;;;;12.41;86.37;101620.56;5263672;28;20465;-79
2021/03/26 11:11:22;;;;;;;5.38;2.30;;;;;;;12.53;88.76;101618.44;5258599;28;20028;-79
2021/03/26 11:13:59;;;;;;;3.38;1.50;;;;;;;12.77;87.25;101618.56;5270360;28;20032;-78
2021/03/26 11:16:40;;;;;;;9.20;1.98;;;;;;;12.85;87.69;101609.66;5257650;28;20388;-77
2021/03/26 11:19:13;;;;;;;10.40;1.85;;;;;;;13.11;73.49;101604.22;5269785;28;20036;-77
2021/03/26 11:21:47;;;;;;;7.18;1.55;;;;;;;13.21;72.91;101604.91;5271168;28;20075;-79
2021/03/26 11:24:18;;;;;;;8.75;1.30;;;;;;;13.13;67.55;101591.41;5270903;28;20028;-78
2021/03/26 11:27:01;;;;;;;3.88;0.93;;;;;;;13.38;71.43;101592.34;5270937;28;20031;-77
2021/03/26 11:29:35;;;;;;;4.25;1.27;;;;;;;13.76;69.58;101576.53;5271861;28;20034;-79
2021/03/26 11:32:08;;;;;;;8.93;1.50;;;;;;;13.81;69.11;101579.56;5270658;28;20035;-78
2021/03/26 11:34:46;;;;;;;4.97;1.30;;;;;;;14.02;69.15;101579.88;5252736;28;20089;-78
2021/03/26 11:37:32;;;;;;;4.43;1.45;;;;;;;14.32;61.95;101572.88;5272253;28;20028;-79
2021/03/26 11:40:20;;;;;;;3.35;1.05;;;;;;;14.40;60.54;101575.53;5271063;28;20024;-78
2021/03/26 11:43:02;;;;;;;6.20;1.23;;;;;;;14.70;65.08;101578.50;5259213;28;20362;-77
2021/03/26 11:45:39;;;;;;;6.75;1.33;;;;;;;14.78;57.63;101570.38;5260413;28;20032;-78
2021/03/26 11:48:20;;;;;;;6.68;1.65;;;;;;;14.83;57.33;101567.97;5270591;28;20057;-78
2021/03/26 11:50:51;;;;;;;7.40;2.13;;;;;;;14.36;58.70;101578.78;5269472;28;20027;-78
2021/03/26 11:53:26;;;;;;;3.97;1.58;;;;;;;14.09;58.17;101577.31;5270975;28;20024;-77
2021/03/26 11:56:01;;;;;;;9.57;1.92;;;;;;;14.08;60.55;101562.97;5269697;28;20039;-77
2021/03/26 11:58:56;;;;;;;7.28;2.10;;;;;;;14.23;63.22;101572.06;5267239;28;20050;-77
2021/03/26 12:01:38;;;;;;;6.25;1.83;;;;;;;14.16;60.70;101571.06;5266345;28;20024;-78
2021/03/26 12:04:17;;;;;;;7.88;1.90;;;;;;;13.96;60.38;101556.28;5265695;28;20496;-77
2021/03/26 12:06:58;;;;;;;2.83;1.58;;;;;;;13.76;60.97;101558.50;5266486;28;20028;-78
2021/03/26 12:09:36;;;;;;;4.95;2.08;;;;;;;13.73;61.46;101556.97;5262778;28;20024;-77
2021/03/26 12:12:15;;;;;;;9.85;1.63;;;;;;;13.66;63.20;101565.91;5258216;28;20121;-77